Time;durP1;ratioP1;P1;durP2;ratioP2;P2;SDS_P1;SDS_P2;PMS_P1;PMS_P2;Temp;Humidity;BMP_temperature;BMP_pressure;BME280_temperature;BME280_humidity;BME280_pressure;Samples;Min_cycle;Max_cycle;Signal;HPM_P1;HPM_P2
2023/01/09 00:03:04;;;;;;;2.80;1.98;;;15.70;70.70;;;;;;10548835;28;20119;-57
2023/01/09 00:08:05;;;;;;;3.75;2.30;;;15.80;70.70;;;;;;10542123;28;20095;-57
2023/01/09 00:13:06;;;;;;;2.67;1.90;;;15.70;70.80;;;;;;10555815;28;20490;-56
2023/01/09 00:18:06;;;;;;;3.28;2.92;;;15.70;70.90;;;;;;10540399;28;20582;-56
2023/01/09 00:23:07;;;;;;;3.03;2.17;;;15.70;70.90;;;;;;10542800;28;20038;-57
2023/01/09 00:28:08;;;;;;;2.15;1.80;;;15.70;71.10;;;;;;10561439;28;20016;-56
2023/01/09 00:33:09;;;;;;;2.85;2.55;;;15.70;71.00;;;;;;10556448;28;20102;-56
2023/01/09 00:38:09;;;;;;;2.15;1.65;;;15.60;71.10;;;;;;10539884;28;20031;-57
2023/01/09 00:43:10;;;;;;;2.90;1.95;;;15.60;71.00;;;;;;10558876;28;20594;-57
2023/01/09 00:48:23;;;;;;;2.47;1.70;;;15.60;71.00;;;;;;10534284;28;20022;-58
2023/01/09 00:53:28;;;;;;;2.03;1.50;;;15.60;71.00;;;;;;10556133;28;20008;-56
2023/01/09 00:58:31;;;;;;;2.63;1.77;;;15.60;71.00;;;;;;10552723;28;20534;-56
2023/01/09 01:03:32;;;;;;;2.60;1.90;;;15.60;71.10;;;;;;10542378;28;20060;-56
2023/01/09 01:08:32;;;;;;;2.40;1.65;;;15.60;71.00;;;;;;10543657;28;20028;-57
2023/01/09 01:13:33;;;;;;;2.60;1.60;;;15.60;71.00;;;;;;10563921;28;20525;-57
2023/01/09 01:18:34;;;;;;;2.47;1.60;;;15.60;71.00;;;;;;10561162;28;20095;-57
2023/01/09 01:23:36;;;;;;;1.70;1.60;;;15.60;71.10;;;;;;10534288;28;20044;-56
2023/01/09 01:28:37;;;;;;;2.00;1.38;;;15.60;70.90;;;;;;10546753;27;20099;-59
2023/01/09 01:33:38;;;;;;;2.38;2.15;;;15.60;70.80;;;;;;10530867;28;20024;-56
2023/01/09 01:38:39;;;;;;;2.50;1.58;;;15.60;71.00;;;;;;10547798;28;20075;-57
2023/01/09 01:43:59;;;;;;;2.25;1.52;;;15.80;70.20;;;;;;10549293;28;20112;-56
2023/01/09 01:49:13;;;;;;;2.17;1.58;;;15.70;70.10;;;;;;10547690;28;20077;-57
2023/01/09 01:54:23;;;;;;;3.08;1.20;;;15.60;70.20;;;;;;10533707;28;20024;-57
2023/01/09 01:59:32;;;;;;;;;;;15.70;70.50;;;;;;10534185;28;20024;-55
2023/01/09 02:04:38;;;;;;;3.30;1.63;;;15.60;70.40;;;;;;10530666;28;19965;-56
2023/01/09 02:09:40;;;;;;;1.42;1.10;;;15.70;70.40;;;;;;10534516;28;20016;-57
2023/01/09 02:14:41;;;;;;;3.50;1.13;;;15.80;69.90;;;;;;10533003;28;20051;-56
2023/01/09 02:20:18;;;;;;;1.83;1.30;;;15.70;70.10;;;;;;10571195;28;20020;-55
2023/01/09 02:25:43;;;;;;;1.42;1.08;;;15.60;70.30;;;;;;10545289;27;20436;-56
2023/01/09 02:31:10;;;;;;;2.55;1.02;;;15.60;70.40;;;;;;10533405;28;20021;-57
2023/01/09 02:36:41;;;;;;;1.15;0.93;;;15.60;70.40;;;;;;10547160;28;20020;-54
2023/01/09 02:42:02;;;;;;;1.92;1.05;;;15.60;70.40;;;;;;10546641;28;20367;-56
2023/01/09 02:47:29;;;;;;;2.25;0.82;;;15.70;70.40;;;;;;10559024;28;20020;-57
2023/01/09 02:53:09;;;;;;;1.25;0.98;;;15.70;69.80;;;;;;10561272;28;20016;-57
2023/01/09 02:58:30;;;;;;;1.83;0.90;;;15.70;70.10;;;;;;10552185;28;20103;-57
2023/01/09 03:03:47;;;;;;;1.67;1.05;;;15.70;69.60;;;;;;10532041;28;20031;-56
2023/01/09 03:08:57;;;;;;;1.88;1.02;;;15.80;70.10;;;;;;10544547;28;20024;-57
2023/01/09 03:14:08;;;;;;;1.15;0.85;;;15.80;69.60;;;;;;10535124;28;20102;-56
2023/01/09 03:19:14;;;;;;;2.50;1.00;;;15.70;69.80;;;;;;10535138;28;20016;-57
2023/01/09 03:24:15;;;;;;;2.10;1.05;;;15.60;70.10;;;;;;10488501;28;20110;-58
2023/01/09 03:29:16;;;;;;;1.95;1.15;;;15.80;76.70;;;;;;10468984;28;20377;-56
2023/01/09 03:34:17;;;;;;;1.20;0.77;;;15.90;75.10;;;;;;10446363;28;20104;-57
2023/01/09 03:39:17;;;;;;;2.78;0.90;;;15.80;74.70;;;;;;10471428;28;20112;-56
2023/01/09 03:44:18;;;;;;;2.00;1.02;;;15.90;74.20;;;;;;10477254;28;20425;-56
2023/01/09 03:49:20;;;;;;;2.10;0.80;;;15.90;73.90;;;;;;10459264;28;20528;-57
2023/01/09 03:54:21;;;;;;;1.65;0.80;;;15.90;74.00;;;;;;10448965;28;20062;-56
2023/01/09 03:59:21;;;;;;;1.83;0.85;;;15.80;73.90;;;;;;10439070;28;20108;-56
2023/01/09 04:04:22;;;;;;;3.72;2.30;;;15.80;73.80;;;;;;10458944;28;20069;-56
2023/01/09 04:09:23;;;;;;;1.55;0.80;;;15.80;73.80;;;;;;10446523;28;20021;-56
2023/01/09 04:14:23;;;;;;;1.88;0.85;;;15.70;73.70;;;;;;10445661;28;20021;-57
2023/01/09 04:19:24;;;;;;;1.23;0.75;;;15.70;73.80;;;;;;10445075;28;20021;-57
2023/01/09 04:24:25;;;;;;;1.50;0.80;;;15.70;73.60;;;;;;10511558;28;20115;-56
2023/01/09 04:29:25;;;;;;;2.15;0.93;;;15.70;73.10;;;;;;10534529;28;20042;-56
2023/01/09 04:34:26;;;;;;;2.17;0.88;;;15.80;72.70;;;;;;10529057;28;20706;-56
2023/01/09 04:39:27;;;;;;;1.40;0.50;;;15.80;72.40;;;;;;10541922;28;20096;-57
2023/01/09 04:44:28;;;;;;;2.88;1.23;;;15.80;72.30;;;;;;10530491;28;20114;-57
2023/01/09 04:49:29;;;;;;;1.20;0.60;;;15.80;71.70;;;;;;10550397;28;20501;-56
2023/01/09 04:54:29;;;;;;;1.98;0.70;;;15.80;71.60;;;;;;10527502;28;20076;-56
2023/01/09 04:59:30;;;;;;;1.10;0.70;;;15.80;71.70;;;;;;10563943;28;20020;-57
2023/01/09 05:04:31;;;;;;;0.70;0.52;;;15.70;71.80;;;;;;10558889;28;20111;-56
2023/01/09 05:09:32;;;;;;;1.48;0.75;;;15.70;71.80;;;;;;10551201;28;20016;-56
2023/01/09 05:14:32;;;;;;;2.35;0.80;;;15.70;71.70;;;;;;10535231;28;20035;-56
2023/01/09 05:19:33;;;;;;;1.85;0.70;;;15.80;71.40;;;;;;10534156;28;20036;-57
2023/01/09 05:24:34;;;;;;;1.30;0.60;;;15.80;71.00;;;;;;10558904;28;20040;-55
2023/01/09 05:29:34;;;;;;;3.35;0.65;;;15.90;70.80;;;;;;10550988;28;20072;-56
2023/01/09 05:34:35;;;;;;;1.42;0.60;;;15.90;70.60;;;;;;10536372;28;20028;-56
2023/01/09 05:39:36;;;;;;;0.98;0.55;;;15.90;70.50;;;;;;10578588;28;20720;-56
2023/01/09 05:44:36;;;;;;;1.75;0.60;;;15.80;70.50;;;;;;10558642;28;20114;-57
2023/01/09 05:49:37;;;;;;;1.73;0.98;;;15.80;70.60;;;;;;10545817;28;20043;-58
2023/01/09 05:54:38;;;;;;;3.75;0.70;;;15.80;70.60;;;;;;10555837;28;20024;-58
2023/01/09 05:59:38;;;;;;;2.20;0.63;;;15.90;70.90;;;;;;10547123;28;20106;-55
2023/01/09 06:04:39;;;;;;;3.30;0.90;;;15.90;71.30;;;;;;10545444;28;20089;-58
2023/01/09 06:09:40;;;;;;;7.57;1.27;;;15.90;71.60;;;;;;10555307;28;20027;-65
2023/01/09 06:14:41;;;;;;;4.18;0.90;;;15.90;71.70;;;;;;10553152;28;20095;-59
2023/01/09 06:19:41;;;;;;;6.32;1.00;;;16.20;72.10;;;;;;10571334;28;20051;-59
2023/01/09 06:24:42;;;;;;;7.75;0.88;;;16.30;71.80;;;;;;10548286;27;20110;-60
2023/01/09 06:29:43;;;;;;;9.10;1.50;;;16.30;71.50;;;;;;10543937;27;20042;-60
2023/01/09 06:34:43;;;;;;;5.75;1.27;;;16.20;71.60;;;;;;10572165;28;20124;-61
2023/01/09 06:39:44;;;;;;;11.82;1.67;;;16.30;71.60;;;;;;10505894;27;20135;-60
2023/01/09 06:44:44;;;;;;;9.20;2.47;;;16.00;71.20;;;;;;10528084;28;20047;-61
2023/01/09 06:49:45;;;;;;;10.02;1.23;;;15.90;71.70;;;;;;10554288;28;20127;-60
2023/01/09 06:54:46;;;;;;;13.27;1.40;;;15.80;71.80;;;;;;10527824;28;20450;-61
2023/01/09 06:59:46;;;;;;;14.55;1.95;;;15.80;71.70;;;;;;10528204;28;20085;-59
2023/01/09 07:04:47;;;;;;;23.58;2.70;;;15.90;71.90;;;;;;10540760;28;20131;-59
2023/01/09 07:09:48;;;;;;;19.85;3.92;;;15.80;72.20;;;;;;10513777;28;20020;-58
2023/01/09 07:14:49;;;;;;;17.27;2.75;;;15.80;72.00;;;;;;10527271;28;20680;-60
2023/01/09 07:19:50;;;;;;;20.23;3.08;;;15.80;71.70;;;;;;10529418;28;20024;-60
2023/01/09 07:24:50;;;;;;;7.80;1.70;;;15.80;71.90;;;;;;10549548;27;20035;-59
2023/01/09 07:29:52;;;;;;;11.63;2.45;;;15.70;71.50;;;;;;10527653;28;20016;-57
2023/01/09 07:34:52;;;;;;;16.35;2.15;;;15.60;71.20;;;;;;10553591;27;20032;-58
2023/01/09 07:39:53;;;;;;;10.73;1.88;;;15.60;71.10;;;;;;10541776;28;20102;-61
2023/01/09 07:44:54;;;;;;;14.95;2.05;;;15.60;71.00;;;;;;10528730;28;20028;-59
2023/01/09 07:49:54;;;;;;;13.48;2.10;;;15.60;71.80;;;;;;10562469;28;20658;-58
2023/01/09 07:54:55;;;;;;;16.45;2.45;;;15.50;72.00;;;;;;10566088;28;20040;-59
2023/01/09 07:59:56;;;;;;;11.27;2.08;;;15.50;72.00;;;;;;10569142;28;20098;-60
2023/01/09 08:04:56;;;;;;;8.70;1.65;;;15.50;71.60;;;;;;10556795;28;20433;-58
2023/01/09 08:09:57;;;;;;;8.57;1.73;;;15.50;71.60;;;;;;10543909;27;20152;-61
2023/01/09 08:14:58;;;;;;;11.48;1.90;;;15.50;71.70;;;;;;10530443;27;20028;-59
2023/01/09 08:19:59;;;;;;;7.82;1.80;;;15.50;71.70;;;;;;10536994;28;20159;-59
2023/01/09 08:24:59;;;;;;;4.88;1.50;;;15.50;71.70;;;;;;10536403;28;20198;-61
2023/01/09 08:30:00;;;;;;;13.27;3.17;;;15.50;71.50;;;;;;10539533;28;20031;-58
2023/01/09 08:35:01;;;;;;;9.07;1.85;;;15.50;71.60;;;;;;10538479;28;20578;-57
2023/01/09 08:40:01;;;;;;;8.23;1.67;;;15.50;71.60;;;;;;10549828;28;20051;-57
2023/01/09 08:50:22;;;;;;;5.38;1.45;;;15.50;71.50;;;;;;10531409;28;20433;-58
2023/01/09 08:55:23;;;;;;;8.95;1.67;;;15.60;71.60;;;;;;10547191;28;20016;-57
2023/01/09 09:00:25;;;;;;;17.08;2.05;;;15.60;71.60;;;;;;10552951;28;20116;-59
2023/01/09 09:05:28;;;;;;;5.57;1.55;;;15.60;71.60;;;;;;10566776;28;20454;-57
2023/01/09 09:10:29;;;;;;;9.23;1.50;;;15.60;71.60;;;;;;10566217;28;20068;-60
2023/01/09 09:15:30;;;;;;;10.15;2.17;;;15.60;71.60;;;;;;10566600;28;20080;-59
2023/01/09 09:20:35;;;;;;;9.85;1.73;;;15.60;71.80;;;;;;10568281;28;20555;-59
2023/01/09 09:25:37;;;;;;;8.40;1.55;;;15.60;72.00;;;;;;10536974;28;20398;-59
2023/01/09 09:30:38;;;;;;;16.67;2.17;;;15.60;71.70;;;;;;10569268;28;20022;-58
2023/01/09 09:35:39;;;;;;;13.55;2.33;;;15.60;71.90;;;;;;10575260;28;20012;-59
2023/01/09 09:46:59;;;;;;;9.63;2.17;;;15.60;71.80;;;;;;10544262;28;20518;-57
2023/01/09 09:52:36;;;;;;;11.40;1.83;;;15.60;71.60;;;;;;10462699;28;20041;-59
2023/01/09 09:57:37;;;;;;;5.57;1.70;;;15.50;71.60;;;;;;10475878;28;20419;-60
2023/01/09 10:02:49;;;;;;;4.70;1.40;;;15.50;71.60;;;;;;10467569;28;20045;-60
2023/01/09 10:07:50;;;;;;;4.05;1.20;;;15.50;71.60;;;;;;10477009;28;20746;-60
2023/01/09 10:12:58;;;;;;;4.43;1.70;;;15.50;71.60;;;;;;10473749;28;20027;-59
2023/01/09 10:18:20;;;;;;;3.88;1.60;;;15.50;71.50;;;;;;10455411;28;20033;-56
2023/01/09 10:24:03;;;;;;;2.67;1.40;;;15.60;71.40;;;;;;10476199;28;20036;-61
2023/01/09 10:29:36;;;;;;;6.32;1.30;;;15.60;71.30;;;;;;10469653;28;20074;-59
2023/01/09 10:34:58;;;;;;;4.63;1.20;;;15.50;71.40;;;;;;10450074;28;20021;-57
2023/01/09 10:40:28;;;;;;;2.55;1.00;;;15.50;71.30;;;;;;10465766;28;20029;-58
2023/01/09 10:45:39;;;;;;;3.50;1.73;;;15.50;71.30;;;;;;10470900;28;20068;-58
2023/01/09 10:50:44;;;;;;;4.03;0.90;;;15.50;71.60;;;;;;10411450;28;20041;-58
2023/01/09 10:55:47;;;;;;;5.18;1.45;;;15.50;71.30;;;;;;10405746;28;20499;-60
2023/01/09 11:00:49;;;;;;;3.50;1.52;;;15.50;71.40;;;;;;10439917;28;20511;-60
2023/01/09 11:05:53;;;;;;;2.70;0.98;;;15.60;71.40;;;;;;10409348;28;20063;-57
2023/01/09 11:10:57;;;;;;;2.88;1.42;;;15.60;71.50;;;;;;10429924;28;20074;-59
2023/01/09 11:16:16;;;;;;;2.58;1.05;;;15.60;71.40;;;;;;10429843;28;20499;-57
2023/01/09 11:21:34;;;;;;;2.72;0.75;;;15.60;71.20;;;;;;10431416;28;20549;-59
2023/01/09 11:26:35;;;;;;;2.72;0.93;;;15.60;71.40;;;;;;10430904;28;20040;-59
2023/01/09 11:31:36;;;;;;;3.13;1.42;;;15.50;71.40;;;;;;10425393;28;20430;-59
2023/01/09 11:36:37;;;;;;;3.70;0.98;;;15.60;71.50;;;;;;10421465;28;20029;-60
2023/01/09 11:41:38;;;;;;;2.60;1.20;;;15.60;71.40;;;;;;10444476;28;20498;-59
2023/01/09 11:46:42;;;;;;;2.88;0.90;;;15.60;71.20;;;;;;10425360;28;20469;-58
2023/01/09 11:51:43;;;;;;;2.22;0.70;;;15.70;71.10;;;;;;10402975;28;20612;-61
2023/01/09 11:56:45;;;;;;;2.05;0.88;;;15.60;71.10;;;;;;10404122;28;20021;-56
2023/01/09 12:02:14;;;;;;;1.88;0.82;;;15.60;71.20;;;;;;10402038;28;20026;-60
2023/01/09 12:07:32;;;;;;;2.13;1.20;;;15.60;71.30;;;;;;10403472;28;20033;-61
2023/01/09 12:12:59;;;;;;;2.83;1.02;;;15.70;71.40;;;;;;10403370;28;20021;-61
2023/01/09 12:18:22;;;;;;;2.15;1.25;;;15.60;71.40;;;;;;10385983;28;20294;-58
2023/01/09 12:23:49;;;;;;;5.40;1.25;;;15.70;71.50;;;;;;10416474;28;20517;-59
2023/01/09 12:29:23;;;;;;;7.75;1.20;;;15.70;71.80;;;;;;10420288;28;20040;-60
2023/01/09 12:34:36;;;;;;;9.00;1.35;;;15.70;71.90;;;;;;10401545;28;20401;-60
2023/01/09 12:40:27;;;;;;;4.22;1.80;;;15.60;72.00;;;;;;10420985;28;20025;-60
2023/01/09 12:45:40;;;;;;;3.13;1.10;;;15.60;72.20;;;;;;10421858;28;20032;-60
2023/01/09 12:51:02;;;;;;;8.63;1.33;;;15.60;72.30;;;;;;10404782;28;20116;-60
2023/01/09 12:56:14;;;;;;;6.57;1.98;;;15.60;72.30;;;;;;10407871;28;20017;-59
2023/01/09 13:01:26;;;;;;;3.38;1.45;;;15.60;72.30;;;;;;10409246;28;20025;-59
2023/01/09 13:06:30;;;;;;;4.75;1.00;;;15.60;72.20;;;;;;10389375;28;20036;-61
2023/01/09 13:11:43;;;;;;;4.82;1.70;;;15.50;72.20;;;;;;10421145;28;20025;-56
2023/01/09 13:16:49;;;;;;;4.57;1.17;;;15.50;72.20;;;;;;10422566;28;20354;-59
2023/01/09 13:21:51;;;;;;;7.35;2.10;;;15.50;71.90;;;;;;10419809;28;20404;-56
2023/01/09 13:26:59;;;;;;;18.00;2.83;;;15.60;72.40;;;;;;10414742;28;20022;-58
2023/01/09 13:32:16;;;;;;;13.43;1.80;;;15.50;72.40;;;;;;10418632;28;20025;-59
2023/01/09 13:37:35;;;;;;;7.78;2.20;;;15.50;72.30;;;;;;10416734;28;20175;-58
2023/01/09 13:42:38;;;;;;;24.63;3.92;;;15.50;72.70;;;;;;10423590;28;20037;-55
2023/01/09 13:47:39;;;;;;;13.57;2.25;;;15.50;72.60;;;;;;10423173;28;20021;-56
2023/01/09 13:52:43;;;;;;;11.07;2.45;;;15.50;72.60;;;;;;10423053;28;20174;-58
2023/01/09 13:58:03;;;;;;;9.30;2.05;;;15.50;72.30;;;;;;10443960;28;20025;-57
2023/01/09 14:03:30;;;;;;;8.15;2.40;;;15.40;72.20;;;;;;10423683;28;20072;-60
2023/01/09 14:08:32;;;;;;;7.95;2.33;;;15.50;72.10;;;;;;10407334;28;20083;-60
2023/01/09 14:13:42;;;;;;;7.60;2.55;;;15.40;72.00;;;;;;10406826;28;20091;-59
2023/01/09 14:18:52;;;;;;;5.32;1.20;;;15.40;72.00;;;;;;10420741;28;20021;-58
2023/01/09 14:24:01;;;;;;;;;;;15.40;71.90;;;;;;10407133;28;20319;-60
2023/01/09 14:29:29;;;;;;;11.23;1.58;;;15.50;71.80;;;;;;10417115;28;19959;-56
2023/01/09 14:34:36;;;;;;;4.85;1.25;;;15.50;71.70;;;;;;10407250;28;20017;-59
2023/01/09 14:39:41;;;;;;;3.17;1.00;;;15.50;71.60;;;;;;10405580;28;20029;-59
2023/01/09 14:44:52;;;;;;;4.60;1.30;;;15.50;71.50;;;;;;10422788;28;20669;-60
2023/01/09 14:50:25;;;;;;;7.10;1.58;;;15.50;71.30;;;;;;10426895;28;20025;-58
2023/01/09 14:55:52;;;;;;;5.85;0.82;;;15.60;71.20;;;;;;10419469;28;20086;-59
2023/01/09 15:01:04;;;;;;;12.05;1.88;;;15.50;71.20;;;;;;10414948;28;20052;-58
2023/01/09 15:06:10;;;;;;;8.55;2.28;;;15.60;71.90;;;;;;10423325;28;20179;-58
2023/01/09 15:11:12;;;;;;;7.88;2.15;;;15.60;72.10;;;;;;10405737;28;20678;-58
2023/01/09 15:16:19;;;;;;;16.30;2.10;;;15.60;72.00;;;;;;10403999;28;20026;-59
2023/01/09 15:21:29;;;;;;;18.23;3.40;;;15.60;72.30;;;;;;10430829;28;20128;-60
2023/01/09 15:26:30;;;;;;;14.98;3.42;;;15.70;72.40;;;;;;10413830;28;20069;-59
2023/01/09 15:31:31;;;;;;;18.77;2.95;;;15.70;72.80;;;;;;10387918;28;20105;-60
2023/01/09 15:36:35;;;;;;;26.50;3.35;;;15.70;72.70;;;;;;10409957;28;20108;-60
2023/01/09 15:47:00;;;;;;;11.77;2.90;;;15.70;72.40;;;;;;10427025;28;20112;-58
2023/01/09 15:52:02;;;;;;;19.08;3.10;;;15.70;72.40;;;;;;10403264;28;20415;-60
2023/01/09 15:57:26;;;;;;;15.20;3.03;;;15.70;72.50;;;;;;10421103;28;20108;-61
2023/01/09 16:07:47;;;;;;;18.55;3.70;;;15.70;72.10;;;;;;10427935;28;20531;-57
2023/01/09 16:12:51;;;;;;;20.33;3.38;;;15.60;71.40;;;;;;10409335;28;20025;-59
2023/01/09 16:18:15;;;;;;;6.15;2.05;;;15.60;72.30;;;;;;10415642;28;20034;-59
2023/01/09 16:23:34;;;;;;;13.15;2.47;;;15.90;73.70;;;;;;10404350;28;20144;-56
2023/01/09 16:28:39;;;;;;;10.00;3.38;;;16.20;73.60;;;;;;10423587;28;20104;-61
2023/01/09 16:33:48;;;;;;;13.18;2.70;;;16.20;73.20;;;;;;10439573;28;20022;-59
2023/01/09 16:38:49;;;;;;;23.08;2.85;;;16.20;73.60;;;;;;10442890;28;20033;-60
2023/01/09 16:43:50;;;;;;;23.50;4.32;;;16.10;73.60;;;;;;10426055;28;20064;-59
2023/01/09 16:48:52;;;;;;;23.55;4.90;;;15.90;71.60;;;;;;10437484;28;20076;-62
2023/01/09 16:53:53;;;;;;;18.40;3.60;;;15.80;72.80;;;;;;10414129;28;20029;-59
2023/01/09 16:58:54;;;;;;;27.67;4.60;;;15.90;72.70;;;;;;10437526;28;20106;-58
2023/01/09 17:03:54;;;;;;;24.83;4.07;;;15.90;72.70;;;;;;10446282;28;20059;-59
2023/01/09 17:08:56;;;;;;;36.38;5.63;;;15.90;73.50;;;;;;10427498;28;20167;-59
2023/01/09 17:13:58;;;;;;;41.83;8.27;;;15.90;74.00;;;;;;10439812;28;20060;-58
2023/01/09 17:18:59;;;;;;;44.25;6.65;;;15.80;74.00;;;;;;10431738;28;20154;-56
2023/01/09 17:29:18;;;;;;;29.55;5.13;;;16.00;74.80;;;;;;10438327;28;20025;-58
2023/01/09 17:34:19;;;;;;;36.03;5.75;;;15.90;74.30;;;;;;10435663;28;20036;-57
2023/01/09 17:39:22;;;;;;;25.02;6.53;;;15.80;74.50;;;;;;10430013;28;20025;-58
2023/01/09 17:44:22;;;;;;;25.70;5.05;;;15.80;74.60;;;;;;10410861;28;20045;-57
2023/01/09 17:49:23;;;;;;;23.60;6.30;;;15.80;75.00;;;;;;10444395;28;20064;-58
2023/01/09 17:54:24;;;;;;;22.00;4.78;;;15.80;74.70;;;;;;10441493;28;20132;-58
2023/01/09 17:59:25;;;;;;;15.98;4.25;;;15.70;74.70;;;;;;10442982;28;20025;-58
2023/01/09 18:04:25;;;;;;;22.50;5.00;;;15.80;74.60;;;;;;10436563;28;20137;-56
2023/01/09 18:09:26;;;;;;;20.60;4.35;;;15.70;74.60;;;;;;10446671;28;20037;-57
2023/01/09 18:14:27;;;;;;;19.98;4.22;;;15.70;74.40;;;;;;10438829;28;20057;-58
2023/01/09 18:19:28;;;;;;;26.00;4.88;;;15.70;74.60;;;;;;10439153;28;20033;-54
2023/01/09 18:24:29;;;;;;;20.85;4.05;;;15.70;74.60;;;;;;10447926;28;20116;-57
2023/01/09 18:29:30;;;;;;;29.33;6.05;;;15.70;74.60;;;;;;10447397;28;20049;-55
2023/01/09 18:34:30;;;;;;;23.95;5.97;;;15.70;74.40;;;;;;10434833;28;20540;-55
2023/01/09 18:39:31;;;;;;;14.77;5.38;;;15.70;74.50;;;;;;10445170;28;20028;-55
2023/01/09 18:44:32;;;;;;;16.45;11.13;;;15.60;74.10;;;;;;10431473;28;20040;-57
2023/01/09 18:49:33;;;;;;;19.35;8.75;;;15.60;74.80;;;;;;10436984;28;20017;-58
2023/01/09 18:54:33;;;;;;;16.27;9.63;;;15.60;74.20;;;;;;10442592;28;20083;-57
2023/01/09 18:59:34;;;;;;;18.38;10.88;;;15.60;74.00;;;;;;10447813;28;20108;-57
2023/01/09 19:04:35;;;;;;;17.88;11.25;;;15.60;74.20;;;;;;10420050;28;20061;-58
2023/01/09 19:09:35;;;;;;;17.38;11.13;;;15.60;74.00;;;;;;10406766;28;20049;-59
2023/01/09 19:14:36;;;;;;;17.35;12.10;;;15.50;73.90;;;;;;10408115;28;20104;-58
2023/01/09 19:19:37;;;;;;;15.77;11.18;;;15.50;73.80;;;;;;10407982;28;20108;-59
2023/01/09 19:24:38;;;;;;;12.15;10.25;;;15.50;73.70;;;;;;10421460;28;20606;-57
2023/01/09 19:29:38;;;;;;;14.82;10.77;;;15.50;73.70;;;;;;10427443;28;20056;-58
2023/01/09 19:34:39;;;;;;;18.75;11.10;;;15.50;73.70;;;;;;10406873;28;20083;-57
2023/01/09 19:39:40;;;;;;;16.02;10.27;;;15.50;73.60;;;;;;10418793;28;20029;-58
2023/01/09 19:44:41;;;;;;;12.48;9.82;;;15.50;73.40;;;;;;10416363;28;20060;-57
2023/01/09 19:49:41;;;;;;;18.02;12.68;;;15.50;73.20;;;;;;10429936;28;20540;-60
2023/01/09 19:54:42;;;;;;;21.55;19.48;;;15.70;74.20;;;;;;10415359;28;20087;-59
2023/01/09 19:59:42;;;;;;;18.77;14.73;;;15.90;73.80;;;;;;10413330;28;20051;-59
2023/01/09 20:04:43;;;;;;;15.32;13.80;;;15.80;73.80;;;;;;10425192;28;20033;-57
2023/01/09 20:09:44;;;;;;;26.35;18.75;;;15.90;74.10;;;;;;10410646;28;20116;-46
2023/01/09 20:14:45;;;;;;;22.27;16.92;;;15.80;73.10;;;;;;10425495;28;20108;-46
2023/01/09 20:19:45;;;;;;;26.75;20.45;;;15.60;73.30;;;;;;10431596;28;20052;-48
2023/01/09 20:24:46;;;;;;;25.25;20.40;;;15.60;73.70;;;;;;10447404;28;20036;-47
2023/01/09 20:29:48;;;;;;;23.35;19.95;;;15.50;73.80;;;;;;10402923;28;20054;-47
2023/01/09 20:34:48;;;;;;;25.38;18.25;;;15.50;73.80;;;;;;10429593;28;20147;-48
2023/01/09 20:39:51;;;;;;;29.17;20.52;;;15.50;73.50;;;;;;10426756;28;20469;-46
2023/01/09 20:44:52;;;;;;;25.40;19.40;;;15.50;74.10;;;;;;10421609;28;20040;-48
2023/01/09 20:49:53;;;;;;;25.10;18.88;;;15.40;73.50;;;;;;10444909;28;20055;-45
2023/01/09 20:54:53;;;;;;;23.85;18.92;;;15.50;73.40;;;;;;10433662;28;20474;-49
2023/01/09 20:59:54;;;;;;;22.25;18.17;;;15.50;73.20;;;;;;10404885;28;20017;-50
2023/01/09 21:04:55;;;;;;;27.98;16.65;;;15.50;73.10;;;;;;10414126;28;20094;-51
2023/01/09 21:09:55;;;;;;;18.80;16.40;;;15.50;73.00;;;;;;10433279;28;20022;-50
2023/01/09 21:15:00;;;;;;;20.15;16.63;;;15.50;72.80;;;;;;10422599;28;20032;-46
2023/01/09 21:20:04;;;;;;;21.00;16.42;;;15.50;72.80;;;;;;10404737;28;20500;-45
2023/01/09 21:25:06;;;;;;;20.95;15.20;;;15.50;72.70;;;;;;10435368;28;20037;-46
2023/01/09 21:30:08;;;;;;;19.73;15.10;;;15.50;72.50;;;;;;10429332;28;20125;-47
2023/01/09 21:35:09;;;;;;;16.83;13.10;;;15.50;72.50;;;;;;10441162;28;20108;-47
2023/01/09 21:40:13;;;;;;;21.40;14.68;;;15.60;72.50;;;;;;10418334;28;20469;-46
2023/01/09 21:50:35;;;;;;;17.15;13.25;;;15.70;71.90;;;;;;10412517;28;20033;-49
2023/01/09 21:55:36;;;;;;;16.45;12.25;;;15.70;71.90;;;;;;10425063;28;20025;-45
2023/01/09 22:00:36;;;;;;;17.75;12.70;;;15.70;71.60;;;;;;10435836;28;20030;-46
2023/01/09 22:05:37;;;;;;;15.52;12.45;;;15.70;71.60;;;;;;10411112;28;20117;-51
2023/01/09 22:10:38;;;;;;;16.90;12.50;;;15.60;71.90;;;;;;10410782;28;20049;-47
2023/01/09 22:15:40;;;;;;;15.15;12.30;;;15.60;72.00;;;;;;10409572;28;20148;-47
2023/01/09 22:20:40;;;;;;;16.33;11.00;;;15.60;72.10;;;;;;10410441;28;20075;-47
2023/01/09 22:25:41;;;;;;;18.00;11.50;;;15.60;71.90;;;;;;10441342;28;20506;-46
2023/01/09 22:30:42;;;;;;;14.32;10.75;;;15.60;71.90;;;;;;10444541;28;20104;-47
2023/01/09 22:35:43;;;;;;;11.23;9.70;;;15.50;71.90;;;;;;10426571;28;20025;-48
2023/01/09 22:40:43;;;;;;;10.68;9.52;;;15.60;71.90;;;;;;10421050;28;20025;-48
2023/01/09 22:45:44;;;;;;;14.30;9.88;;;15.60;71.80;;;;;;10443687;28;20132;-51
2023/01/09 22:50:45;;;;;;;10.95;9.32;;;15.60;71.80;;;;;;10409982;28;20100;-48
2023/01/09 22:55:57;;;;;;;10.93;8.88;;;15.50;71.80;;;;;;10427280;28;20120;-51
2023/01/09 23:00:58;;;;;;;11.88;9.10;;;15.50;71.80;;;;;;10412962;28;20044;-50
2023/01/09 23:06:05;;;;;;;14.23;8.75;;;15.50;71.80;;;;;;10449697;28;20047;-51
2023/01/09 23:11:10;;;;;;;11.38;8.13;;;15.60;71.50;;;;;;10447992;28;20049;-50
2023/01/09 23:16:11;;;;;;;12.55;8.43;;;15.70;71.30;;;;;;10437012;28;20040;-46
2023/01/09 23:21:12;;;;;;;14.38;8.07;;;15.60;71.30;;;;;;10442664;28;20045;-49
2023/01/09 23:26:12;;;;;;;9.98;7.68;;;15.60;71.40;;;;;;10441761;28;20072;-46
2023/01/09 23:31:14;;;;;;;9.00;7.07;;;15.60;71.40;;;;;;10441507;28;20025;-47
2023/01/09 23:36:14;;;;;;;11.35;7.05;;;15.70;71.20;;;;;;10448453;28;20420;-46
2023/01/09 23:41:16;;;;;;;8.98;7.18;;;15.70;71.00;;;;;;10434544;28;20060;-46
2023/01/09 23:46:16;;;;;;;11.57;7.55;;;15.70;70.80;;;;;;10433500;28;20039;-47
2023/01/09 23:51:17;;;;;;;10.80;6.88;;;15.60;71.10;;;;;;10426255;28;20013;-47
2023/01/09 23:56:18;;;;;;;9.07;5.90;;;15.70;70.90;;;;;;10441292;28;20117;-46
